createdAt,value
2018-12-18T00:01:46.317Z,99959.29
2018-12-18T00:04:14.521Z,99952.98
2018-12-18T00:06:42.298Z,99955.15
2018-12-18T00:09:10.755Z,99957.13
2018-12-18T00:11:39.025Z,99962.81
2018-12-18T00:14:06.925Z,99957.52
2018-12-18T00:16:36.177Z,99963.98
2018-12-18T00:19:04.697Z,99965.93
2018-12-18T00:21:33.017Z,99962.78
2018-12-18T00:24:03.938Z,99963.17
2018-12-18T00:26:32.857Z,99968.46
2018-12-18T00:29:02.341Z,99972.41
2018-12-18T00:31:30.402Z,99965.73
2018-12-18T00:33:59.258Z,99960.97
2018-12-18T00:36:26.929Z,99962.16
2018-12-18T00:38:55.140Z,99956.59
2018-12-18T00:41:23.274Z,99919.63
2018-12-18T00:43:51.288Z,99964.45
2018-12-18T00:46:19.663Z,99963.23
2018-12-18T00:48:48.318Z,99963.50
2018-12-18T00:51:16.327Z,99970.34
2018-12-18T00:53:44.466Z,99966.95
2018-12-18T00:56:12.628Z,99969.52
2018-12-18T00:58:40.517Z,99905.19
2018-12-18T01:01:08.303Z,99971.09
2018-12-18T01:03:38.732Z,99966.59
2018-12-18T01:06:06.787Z,99963.99
2018-12-18T01:08:34.678Z,99964.78
2018-12-18T01:11:02.876Z,99965.17
2018-12-18T01:13:31.042Z,99958.47
2018-12-18T01:15:58.920Z,99971.45
2018-12-18T01:18:26.794Z,99960.84
2018-12-18T01:20:54.963Z,99959.66
2018-12-18T01:23:23.910Z,99945.85
2018-12-18T01:25:51.834Z,99962.81
2018-12-18T01:28:19.526Z,99966.42
2018-12-18T01:30:47.466Z,99965.77
2018-12-18T01:33:15.371Z,99968.82
2018-12-18T01:35:43.276Z,99972.03
2018-12-18T01:38:11.766Z,99832.72
2018-12-18T01:40:39.963Z,99971.86
2018-12-18T01:43:07.895Z,99949.27
2018-12-18T01:45:35.694Z,99974.45
2018-12-18T01:48:03.624Z,99976.84
2018-12-18T01:50:31.470Z,99966.56
2018-12-18T01:52:59.903Z,99965.97
2018-12-18T01:55:28.067Z,99967.35
2018-12-18T01:57:56.448Z,99970.70
2018-12-18T02:00:24.818Z,99960.31
2018-12-18T02:02:53.049Z,99964.85
2018-12-18T02:05:20.987Z,99969.41
2018-12-18T02:07:49.511Z,99965.34
2018-12-18T02:10:17.281Z,99974.43
2018-12-18T02:12:45.179Z,99983.52
2018-12-18T02:15:13.902Z,99991.23
2018-12-18T02:17:42.285Z,99997.58
2018-12-18T02:20:10.195Z,100000.11
2018-12-18T02:22:38.531Z,100000.50
2018-12-18T02:25:06.712Z,99992.78
2018-12-18T02:27:34.812Z,99983.13
2018-12-18T02:30:03.330Z,99981.84
2018-12-18T02:32:31.312Z,99979.76
2018-12-18T02:34:59.266Z,99981.78
2018-12-18T02:37:27.764Z,99991.89
2018-12-18T02:39:56.155Z,99995.47
2018-12-18T02:42:24.135Z,99982.26
2018-12-18T02:44:52.803Z,100008.07
2018-12-18T02:47:20.494Z,100010.63
2018-12-18T02:49:48.818Z,100045.92
2018-12-18T02:52:17.281Z,99973.08
2018-12-18T02:54:45.271Z,99824.30
2018-12-18T02:57:13.119Z,100016.63
2018-12-18T02:59:41.742Z,100012.91
2018-12-18T03:02:09.837Z,99990.66
2018-12-18T03:04:37.744Z,100006.91
2018-12-18T03:07:05.941Z,100008.88
2018-12-18T03:09:33.823Z,100006.34
2018-12-18T03:12:01.720Z,100006.54
2018-12-18T03:14:30.277Z,100007.33
2018-12-18T03:16:58.364Z,100002.57
2018-12-18T03:19:26.310Z,99982.92
2018-12-18T03:21:54.531Z,100003.56
2018-12-18T03:24:22.668Z,100004.52
2018-12-18T03:26:50.549Z,100007.28
2018-12-18T03:29:18.731Z,100000.75
2018-12-18T03:31:50.535Z,100004.52
2018-12-18T03:34:18.607Z,99808.31
2018-12-18T03:36:47.079Z,99798.56
2018-12-18T03:39:15.040Z,99987.08
2018-12-18T03:41:42.760Z,100009.49
2018-12-18T03:44:11.373Z,100006.94
2018-12-18T03:46:39.647Z,100003.92
2018-12-18T03:49:07.485Z,100005.67
2018-12-18T03:51:35.737Z,100000.11
2018-12-18T03:54:04.015Z,99994.00
2018-12-18T03:56:32.010Z,99957.30
2018-12-18T03:59:01.173Z,99991.75
2018-12-18T04:01:29.823Z,99988.17
2018-12-18T04:03:57.709Z,99991.52
2018-12-18T04:06:25.555Z,99927.09
2018-12-18T04:08:53.502Z,99998.64
2018-12-18T04:11:21.570Z,100002.16
2018-12-18T04:13:50.040Z,100000.73
2018-12-18T04:16:17.783Z,99997.32
2018-12-18T04:18:45.977Z,99999.04
2018-12-18T04:21:13.831Z,99980.90
2018-12-18T04:23:41.696Z,100000.42
2018-12-18T04:26:13.995Z,99977.93
2018-12-18T04:28:42.419Z,100004.53
2018-12-18T04:31:10.684Z,99995.63
2018-12-18T04:33:39.120Z,99998.76
2018-12-18T04:36:07.584Z,100000.33
2018-12-18T04:38:35.647Z,99974.52
2018-12-18T04:41:03.471Z,99992.09
2018-12-18T04:43:32.141Z,99992.25
2018-12-18T04:46:00.413Z,99998.95
2018-12-18T04:48:28.140Z,100001.28
2018-12-18T04:50:56.514Z,100004.84
2018-12-18T04:53:24.457Z,100004.25
2018-12-18T04:56:23.228Z,100028.66
2018-12-18T04:58:51.757Z,100003.09
2018-12-18T05:01:19.637Z,99994.03
2018-12-18T05:03:47.732Z,100017.64
2018-12-18T05:06:15.680Z,100012.92
2018-12-18T05:08:43.820Z,100028.60
2018-12-18T05:11:13.205Z,100018.58
2018-12-18T05:13:41.749Z,100020.55
2018-12-18T05:16:10.064Z,100029.76
2018-12-18T05:18:38.440Z,100000.19
2018-12-18T05:21:07.151Z,100034.59
2018-12-18T05:23:35.135Z,100044.05
2018-12-18T05:26:03.041Z,100048.92
2018-12-18T05:28:31.158Z,100049.94
2018-12-18T05:30:59.442Z,100006.81
2018-12-18T05:33:27.504Z,100047.18
2018-12-18T05:35:56.147Z,100044.20
2018-12-18T05:38:23.943Z,100022.88
2018-12-18T05:40:51.974Z,100049.09
2018-12-18T05:43:20.363Z,100060.87
2018-12-18T05:45:48.391Z,100064.39
2018-12-18T05:48:16.467Z,100060.64
2018-12-18T05:50:44.649Z,100021.76
2018-12-18T05:53:12.605Z,100062.53
2018-12-18T05:55:40.389Z,100067.66
2018-12-18T05:58:08.406Z,100066.30
2018-12-18T06:00:36.349Z,100064.81
2018-12-18T06:03:04.381Z,100085.14
2018-12-18T06:05:32.586Z,100017.89
2018-12-18T06:08:01.823Z,100062.53
2018-12-18T06:10:29.888Z,100064.64
2018-12-18T06:12:58.772Z,100066.98
2018-12-18T06:15:26.715Z,100069.54
2018-12-18T06:17:55.200Z,100059.12
2018-12-18T06:20:23.651Z,100053.73
2018-12-18T06:22:51.771Z,100054.70
2018-12-18T06:25:20.010Z,100051.77
2018-12-18T06:27:48.191Z,100056.53
2018-12-18T06:30:15.918Z,100063.06
2018-12-18T06:32:43.640Z,100061.52
2018-12-18T06:35:11.740Z,100058.75
2018-12-18T06:37:39.484Z,100058.92
2018-12-18T06:40:07.423Z,100064.45
2018-12-18T06:42:35.212Z,100064.27
2018-12-18T06:45:06.017Z,100069.56
2018-12-18T06:47:33.757Z,100068.39
2018-12-18T06:50:02.903Z,100069.00
2018-12-18T06:52:30.663Z,100063.17
2018-12-18T06:54:58.432Z,100062.05
2018-12-18T06:57:26.710Z,100067.37
2018-12-18T06:59:54.593Z,100069.95
2018-12-18T07:02:22.427Z,100066.07
2018-12-18T07:04:50.645Z,100059.84
2018-12-18T07:07:18.501Z,100060.57
2018-12-18T07:09:46.518Z,100060.82
2018-12-18T07:12:14.628Z,100062.70
2018-12-18T07:14:42.679Z,100060.66
2018-12-18T07:17:10.745Z,100064.87
2018-12-18T07:19:38.834Z,100062.19
2018-12-18T07:22:06.621Z,100062.03
2018-12-18T07:24:34.410Z,100062.70
2018-12-18T07:27:02.304Z,99849.78
2018-12-18T07:29:30.745Z,100062.45
2018-12-18T07:31:58.520Z,100052.64
2018-12-18T07:34:33.249Z,100051.52
2018-12-18T07:36:55.395Z,99898.59
2018-12-18T07:39:23.373Z,100050.20
2018-12-18T07:41:51.139Z,100050.45
2018-12-18T07:44:19.167Z,100057.55
2018-12-18T07:46:46.980Z,99962.51
2018-12-18T07:49:15.118Z,100044.41
2018-12-18T07:51:42.902Z,100057.61
2018-12-18T07:54:10.879Z,100062.56
2018-12-18T07:56:39.473Z,99891.47
2018-12-18T07:59:07.392Z,100061.22
2018-12-18T08:01:35.697Z,99836.23
2018-12-18T08:04:03.875Z,99994.17
2018-12-18T08:06:31.740Z,100072.11
2018-12-18T08:09:01.237Z,100066.03
2018-12-18T08:11:29.724Z,100066.41
2018-12-18T08:13:57.767Z,100076.42
2018-12-18T08:16:25.808Z,100078.55
2018-12-18T08:18:54.240Z,100072.05
2018-12-18T08:21:22.157Z,100074.13
2018-12-18T08:23:49.902Z,100070.34
2018-12-18T08:26:18.273Z,100067.34
2018-12-18T08:28:46.007Z,100071.05
2018-12-18T08:31:13.842Z,100069.59
2018-12-18T08:33:42.019Z,100063.05
2018-12-18T08:36:09.787Z,99931.83
2018-12-18T08:38:37.619Z,100062.34
2018-12-18T08:41:06.105Z,100055.05
2018-12-18T08:43:34.448Z,100063.86
2018-12-18T08:46:02.470Z,100060.45
2018-12-18T08:48:31.291Z,100061.86
2018-12-18T08:50:59.283Z,100030.69
2018-12-18T08:53:28.125Z,100119.38
2018-12-18T08:55:56.911Z,100071.88
2018-12-18T08:58:24.631Z,100070.33
2018-12-18T09:00:53.040Z,100063.06
2018-12-18T09:03:20.755Z,100059.84
2018-12-18T09:05:48.869Z,99960.74
2018-12-18T09:08:17.361Z,100079.54
2018-12-18T09:10:45.163Z,100084.05
2018-12-18T09:13:13.396Z,99854.94
2018-12-18T09:15:47.707Z,100084.20
2018-12-18T09:18:15.577Z,100093.42
2018-12-18T09:20:44.001Z,100081.41
2018-12-18T09:23:12.099Z,100091.98
2018-12-18T09:25:40.240Z,100084.47
2018-12-18T09:28:08.227Z,100087.14
2018-12-18T09:30:42.505Z,100091.06
2018-12-18T09:33:05.644Z,100098.30
2018-12-18T09:35:34.123Z,100080.35
2018-12-18T09:38:07.402Z,100090.47
2018-12-18T09:41:46.176Z,100068.50
2018-12-18T09:44:17.338Z,100081.98
2018-12-18T09:46:46.325Z,100076.95
2018-12-18T09:49:14.776Z,100065.66
2018-12-18T09:51:42.824Z,100069.09
2018-12-18T09:54:11.486Z,100069.34
2018-12-18T09:56:44.613Z,100067.56
2018-12-18T09:59:12.873Z,100054.25
2018-12-18T10:01:41.842Z,100064.77
2018-12-18T10:04:09.790Z,100059.47
2018-12-18T10:06:38.715Z,100058.75
2018-12-18T10:09:09.680Z,100056.91
2018-12-18T10:11:36.559Z,100054.52
2018-12-18T10:14:04.760Z,100046.68
2018-12-18T10:16:32.755Z,99960.08
2018-12-18T10:19:00.696Z,100046.80
2018-12-18T10:21:28.721Z,100046.20
2018-12-18T10:23:56.738Z,99996.39
2018-12-18T10:26:26.624Z,100034.89
2018-12-18T10:28:55.496Z,100031.74
2018-12-18T10:31:25.335Z,100018.12
2018-12-18T10:33:55.695Z,99842.96
2018-12-18T10:36:23.807Z,100006.28
2018-12-18T10:38:51.867Z,100000.19
2018-12-18T10:41:20.481Z,99983.53
2018-12-18T10:43:48.971Z,99969.89
2018-12-18T10:46:19.926Z,99962.59
2018-12-18T10:48:48.971Z,99942.75
2018-12-18T10:51:18.209Z,99949.48
2018-12-18T10:53:46.029Z,99945.02
2018-12-18T10:56:14.517Z,99933.84
2018-12-18T10:58:44.938Z,99937.84
2018-12-18T11:02:17.709Z,99931.47
2018-12-18T11:04:47.304Z,99927.54
2018-12-18T11:07:18.258Z,99920.19
2018-12-18T11:09:47.250Z,99922.52
2018-12-18T11:12:21.792Z,99916.34
2018-12-18T11:14:49.916Z,99910.75
2018-12-18T11:17:18.155Z,99907.94
2018-12-18T11:19:46.130Z,99908.23
2018-12-18T11:22:15.111Z,99896.94
2018-12-18T11:24:43.883Z,99898.77
2018-12-18T11:27:11.899Z,99896.31
2018-12-18T11:29:39.632Z,99896.88
2018-12-18T11:32:09.506Z,99896.38
2018-12-18T11:34:36.472Z,99832.52
2018-12-18T11:37:05.042Z,99839.95
2018-12-18T11:39:33.151Z,99890.64
2018-12-18T11:42:01.016Z,99875.73
2018-12-18T11:44:29.223Z,99823.27
2018-12-18T11:46:57.423Z,99892.47
2018-12-18T11:49:25.366Z,99714.31
2018-12-18T11:51:54.908Z,99892.42
2018-12-18T11:54:24.441Z,99888.20
2018-12-18T11:56:52.380Z,99888.96
2018-12-18T11:59:21.586Z,99883.70
2018-12-18T12:01:51.512Z,99883.50
2018-12-18T12:04:22.219Z,99651.09
2018-12-18T12:06:50.558Z,99870.46
2018-12-18T12:09:19.310Z,99829.06
2018-12-18T12:11:47.432Z,99865.59
2018-12-18T12:14:16.737Z,99858.72
2018-12-18T12:16:45.213Z,99850.19
2018-12-18T12:19:13.079Z,99841.08
2018-12-18T12:21:41.256Z,99835.59
2018-12-18T12:24:08.977Z,99834.05
2018-12-18T12:26:44.620Z,99834.15
2018-12-18T12:29:13.838Z,99827.16
2018-12-18T12:31:41.888Z,99819.61
2018-12-18T12:34:09.816Z,99825.00
2018-12-18T12:36:39.467Z,99818.56
2018-12-18T12:39:09.988Z,99812.13
2018-12-18T12:41:38.223Z,99808.20
2018-12-18T12:44:08.993Z,99802.20
2018-12-18T12:46:37.339Z,99786.41
2018-12-18T12:49:10.736Z,99803.91
2018-12-18T12:51:38.992Z,99805.98
2018-12-18T12:54:06.995Z,99647.00
2018-12-18T12:56:35.320Z,99802.24
2018-12-18T12:59:03.383Z,99746.30
2018-12-18T13:01:31.101Z,99717.91
2018-12-18T13:03:58.825Z,99809.80
2018-12-18T13:06:27.180Z,99803.81
2018-12-18T13:08:56.322Z,99765.85
2018-12-18T13:11:29.963Z,99800.37
2018-12-18T13:13:59.994Z,99792.66
2018-12-18T13:16:29.324Z,99792.12
2018-12-18T13:18:59.116Z,99775.47
2018-12-18T13:21:30.528Z,99787.48
2018-12-18T13:23:58.448Z,99781.00
2018-12-18T13:26:26.678Z,99781.06
2018-12-18T13:28:59.673Z,99778.73
2018-12-18T13:31:28.386Z,99727.41
2018-12-18T13:33:59.333Z,99761.27
2018-12-18T13:36:30.202Z,99772.80
2018-12-18T13:38:59.130Z,99769.19
2018-12-18T13:41:26.955Z,99715.87
2018-12-18T13:43:55.464Z,99762.22
2018-12-18T13:46:23.944Z,99769.88
2018-12-18T13:48:54.957Z,99769.15
2018-12-18T13:51:32.123Z,99759.80
2018-12-18T13:54:00.546Z,99762.90
2018-12-18T13:56:30.125Z,99761.38
2018-12-18T13:59:00.380Z,99767.80
2018-12-18T14:01:33.721Z,99771.20
2018-12-18T14:04:05.493Z,99543.14
2018-12-18T14:06:33.783Z,99755.38
2018-12-18T14:09:02.269Z,99756.91
2018-12-18T14:11:30.398Z,99750.58
2018-12-18T14:13:58.356Z,99761.39
2018-12-18T14:16:26.898Z,99579.23
2018-12-18T14:18:54.814Z,99755.08
2018-12-18T14:21:23.843Z,99757.34
2018-12-18T14:23:51.787Z,99755.06
2018-12-18T14:26:20.940Z,99729.05
2018-12-18T14:28:48.742Z,99748.33
2018-12-18T14:31:16.984Z,99748.06
2018-12-18T14:33:45.484Z,99743.27
2018-12-18T14:36:14.278Z,99739.05
2018-12-18T14:38:42.952Z,99730.30
2018-12-18T14:41:10.923Z,99631.62
2018-12-18T14:43:39.091Z,99741.52
2018-12-18T14:46:07.682Z,99750.30
2018-12-18T14:48:39.502Z,99739.33
2018-12-18T14:51:07.710Z,99671.66
2018-12-18T14:53:35.970Z,99740.33
2018-12-18T14:56:13.358Z,99739.12
2018-12-18T14:58:44.498Z,99743.27
2018-12-18T15:01:19.456Z,99590.72
2018-12-18T15:03:47.239Z,99743.31
2018-12-18T15:06:15.032Z,99720.61
2018-12-18T15:08:42.779Z,99735.05
2018-12-18T15:11:10.791Z,99739.47
2018-12-18T15:13:40.491Z,99723.02
2018-12-18T15:16:08.532Z,99727.67
2018-12-18T15:18:39.659Z,99761.53
2018-12-18T15:21:08.903Z,99738.97
2018-12-18T15:23:37.367Z,99730.97
2018-12-18T15:26:10.441Z,99734.03
2018-12-18T15:28:38.663Z,99459.75
2018-12-18T15:31:06.819Z,99746.05
2018-12-18T15:33:41.291Z,99740.80
2018-12-18T15:36:09.224Z,99603.36
2018-12-18T15:38:37.475Z,99746.66
2018-12-18T15:41:07.850Z,99743.38
2018-12-18T15:43:36.937Z,99739.94
2018-12-18T15:46:10.752Z,99741.02
2018-12-18T15:48:47.698Z,99742.84
2018-12-18T15:51:15.575Z,99731.67
2018-12-18T15:53:44.720Z,99484.20
2018-12-18T15:56:15.903Z,99742.58
2018-12-18T15:58:47.645Z,99742.45
2018-12-18T16:01:16.288Z,99604.56
2018-12-18T16:03:44.640Z,99746.52
2018-12-18T16:06:12.648Z,99740.88
2018-12-18T16:08:41.754Z,99738.97
2018-12-18T16:11:11.113Z,99740.81
2018-12-18T16:13:39.141Z,99740.52
2018-12-18T16:16:09.851Z,99744.91
2018-12-18T16:18:39.471Z,99735.13
2018-12-18T16:21:14.285Z,99684.52
2018-12-18T16:23:44.473Z,99746.48
2018-12-18T16:26:15.465Z,99749.50
2018-12-18T16:28:47.631Z,99742.87
2018-12-18T16:31:19.674Z,99736.60
2018-12-18T16:33:49.693Z,99731.77
2018-12-18T16:36:19.860Z,99698.55
2018-12-18T16:38:50.185Z,99718.52
2018-12-18T16:41:18.272Z,99718.02
2018-12-18T16:43:46.059Z,99714.53
2018-12-18T16:46:14.406Z,99715.61
2018-12-18T16:48:43.097Z,99708.45
2018-12-18T16:51:11.065Z,99712.08
2018-12-18T16:53:39.293Z,99708.04
2018-12-18T16:56:07.413Z,99707.53
2018-12-18T16:58:35.205Z,99702.70
2018-12-18T17:01:04.052Z,99701.02
2018-12-18T17:03:33.432Z,99695.99
2018-12-18T17:06:01.740Z,99694.48
2018-12-18T17:08:30.187Z,99648.33
2018-12-18T17:10:59.138Z,99662.37
2018-12-18T17:13:32.204Z,99681.69
2018-12-18T17:16:00.949Z,99679.81
2018-12-18T17:18:28.976Z,99668.03
2018-12-18T17:20:56.909Z,99681.71
2018-12-18T17:23:26.053Z,99638.70
2018-12-18T17:25:54.747Z,99669.66
2018-12-18T17:28:22.812Z,99666.97
2018-12-18T17:30:52.261Z,99666.65
2018-12-18T17:33:20.431Z,99666.90
2018-12-18T17:35:49.768Z,99660.86
2018-12-18T17:38:18.078Z,99616.67
2018-12-18T17:40:46.219Z,99655.44
2018-12-18T17:43:18.627Z,99653.69
2018-12-18T17:45:50.945Z,99647.09
2018-12-18T17:48:22.403Z,99637.52
2018-12-18T17:50:52.333Z,99641.69
2018-12-18T17:53:23.716Z,99638.80
2018-12-18T17:56:03.632Z,99427.52
2018-12-18T17:58:32.492Z,99616.33
2018-12-18T18:01:03.408Z,99636.63
2018-12-18T18:03:32.559Z,99632.34
2018-12-18T18:06:04.148Z,99628.63
2018-12-18T18:08:33.587Z,99626.72
2018-12-18T18:11:01.859Z,99624.80
2018-12-18T18:13:30.201Z,99620.89
2018-12-18T18:16:00.699Z,99504.66
2018-12-18T18:18:28.558Z,99630.22
2018-12-18T18:20:58.763Z,99645.36
2018-12-18T18:23:26.540Z,99638.11
2018-12-18T18:25:56.923Z,99637.16
2018-12-18T18:28:26.926Z,99624.23
2018-12-18T18:30:54.713Z,99621.91
2018-12-18T18:33:22.797Z,99617.14
2018-12-18T18:35:51.719Z,99602.23
2018-12-18T18:38:20.774Z,99634.94
2018-12-18T18:40:48.516Z,99636.38
2018-12-18T18:43:16.735Z,99638.59
2018-12-18T18:45:45.792Z,99637.66
2018-12-18T18:48:14.154Z,99622.00
2018-12-18T18:50:42.463Z,99619.28
2018-12-18T18:53:11.744Z,99594.97
2018-12-18T18:55:40.836Z,99613.66
2018-12-18T18:58:10.050Z,99611.91
2018-12-18T19:00:50.996Z,99618.80
2018-12-18T19:03:24.707Z,99611.95
2018-12-18T19:05:52.777Z,99601.79
2018-12-18T19:08:21.163Z,99597.88
2018-12-18T19:10:49.192Z,99607.73
2018-12-18T19:13:19.353Z,99605.19
2018-12-18T19:15:47.209Z,99602.45
2018-12-18T19:18:16.629Z,99447.58
2018-12-18T19:20:44.827Z,99591.73
2018-12-18T19:23:12.998Z,99586.83
2018-12-18T19:25:40.921Z,99587.05
2018-12-18T19:28:09.245Z,99349.20
2018-12-18T19:30:37.700Z,99585.88
2018-12-18T19:33:05.541Z,99590.75
2018-12-18T19:35:33.675Z,99584.28
2018-12-18T19:38:03.827Z,99587.03
2018-12-18T19:40:33.232Z,99583.50
2018-12-18T19:43:01.022Z,99515.34
2018-12-18T19:45:36.540Z,99575.84
2018-12-18T19:48:07.015Z,99324.59
2018-12-18T19:50:35.730Z,99461.19
2018-12-18T19:53:06.870Z,99451.55
2018-12-18T19:55:45.331Z,99482.25
2018-12-18T19:58:14.552Z,99561.03
2018-12-18T20:00:42.371Z,99556.34
2018-12-18T20:03:10.816Z,99537.13
2018-12-18T20:05:43.875Z,99552.86
2018-12-18T20:08:15.097Z,99552.06
2018-12-18T20:10:43.075Z,99548.75
2018-12-18T20:13:11.187Z,99549.72
2018-12-18T20:15:39.303Z,99545.20
2018-12-18T20:18:14.830Z,99532.48
2018-12-18T20:20:42.952Z,99532.30
2018-12-18T20:23:11.185Z,99537.42
2018-12-18T20:25:39.014Z,99532.34
2018-12-18T20:28:07.261Z,99530.41
2018-12-18T20:30:35.194Z,99530.03
2018-12-18T20:33:03.846Z,99381.13
2018-12-18T20:35:31.819Z,99528.70
2018-12-18T20:37:59.590Z,99511.50
2018-12-18T20:40:27.384Z,99448.30
2018-12-18T20:42:55.795Z,99505.09
2018-12-18T20:45:23.520Z,99511.56
2018-12-18T20:47:51.917Z,99510.58
2018-12-18T20:50:19.724Z,99499.60
2018-12-18T20:52:48.125Z,99498.01
2018-12-18T20:55:16.428Z,99487.67
2018-12-18T20:57:44.203Z,99477.23
2018-12-18T21:00:13.069Z,99474.88
2018-12-18T21:02:41.403Z,99480.96
2018-12-18T21:05:10.027Z,99474.12
2018-12-18T21:07:37.976Z,99472.19
2018-12-18T21:10:07.728Z,99474.73
2018-12-18T21:12:35.714Z,99468.48
2018-12-18T21:15:04.013Z,99470.27
2018-12-18T21:17:32.261Z,99465.78
2018-12-18T21:20:00.200Z,99462.42
2018-12-18T21:22:28.712Z,99463.23
2018-12-18T21:24:57.390Z,99462.44
2018-12-18T21:27:25.681Z,99454.06
2018-12-18T21:29:54.841Z,99452.54
2018-12-18T21:32:23.457Z,99445.50
2018-12-18T21:34:51.416Z,99440.06
2018-12-18T21:37:19.195Z,99434.95
2018-12-18T21:39:48.632Z,99432.05
2018-12-18T21:42:16.910Z,99428.73
2018-12-18T21:44:44.919Z,99422.70
2018-12-18T21:47:13.223Z,99409.59
2018-12-18T21:49:41.784Z,99408.88
2018-12-18T21:52:09.857Z,99419.84
2018-12-18T21:54:38.751Z,99424.78
2018-12-18T21:57:06.580Z,99423.45
2018-12-18T21:59:34.680Z,99413.30
2018-12-18T22:02:02.857Z,99402.97
2018-12-18T22:04:30.821Z,99393.02
2018-12-18T22:06:59.521Z,99388.69
2018-12-18T22:09:28.505Z,99383.22
2018-12-18T22:11:56.412Z,99388.70
2018-12-18T22:14:27.758Z,99376.22
2018-12-18T22:16:56.084Z,99363.30
2018-12-18T22:19:24.114Z,99368.97
2018-12-18T22:21:52.056Z,99375.84
2018-12-18T22:24:20.580Z,99375.69
2018-12-18T22:26:48.738Z,99372.59
2018-12-18T22:29:16.794Z,99367.38
2018-12-18T22:31:48.877Z,99360.00
2018-12-18T22:34:17.107Z,99363.36
2018-12-18T22:36:45.031Z,99380.22
2018-12-18T22:39:13.636Z,99360.27
2018-12-18T22:41:41.447Z,99355.19
2018-12-18T22:44:09.530Z,99350.34
2018-12-18T22:46:37.500Z,99337.45
2018-12-18T22:49:05.428Z,99334.95
2018-12-18T22:51:33.920Z,99322.81
2018-12-18T22:54:02.016Z,99319.52
2018-12-18T22:56:30.280Z,99299.92
2018-12-18T22:58:58.747Z,99322.51
2018-12-18T23:01:32.094Z,99320.38
2018-12-18T23:04:01.355Z,99313.72
2018-12-18T23:06:29.313Z,99308.06
2018-12-18T23:08:57.006Z,99294.59
2018-12-18T23:11:25.100Z,99296.73
2018-12-18T23:13:53.439Z,99305.16
2018-12-18T23:16:21.365Z,99293.58
2018-12-18T23:18:49.169Z,99302.58
2018-12-18T23:21:17.190Z,99241.23
2018-12-18T23:23:45.415Z,99298.08
2018-12-18T23:26:13.803Z,99294.76
2018-12-18T23:28:41.757Z,99290.25
2018-12-18T23:31:09.928Z,99292.02
2018-12-18T23:33:39.321Z,99210.89
2018-12-18T23:36:08.704Z,99293.41
2018-12-18T23:38:36.647Z,99289.11
2018-12-18T23:41:05.590Z,99277.80
2018-12-18T23:43:33.620Z,99282.08
2018-12-18T23:46:01.489Z,99278.58
2018-12-18T23:48:29.715Z,99281.91
2018-12-18T23:50:57.530Z,99269.37
2018-12-18T23:53:25.580Z,99178.94
2018-12-18T23:55:53.485Z,99266.09
2018-12-18T23:58:21.452Z,99192.31
